Página principal
METAR-TAF:

METAR-TAF

Aeroportos :

Aeroporto de Petropavlovsk

Petropavl, Cazaquistão

latitude: 54-46-28N, longitude: 069-11-06E, altura: 139 m

Observação actual do tempo

O boletim foi feito há 29 minutos, às 13:00 UTC
Vento 6 kt de oes-sudoeste
Temperatura 15°C
Humidade 63%
Pressão 1019 hPa
Visibilidade 10 km ou mais
sem nuvens abaixo de 1500 metros e sem cumulonimbus

METAR: UACP 241300Z 24003MPS CAVOK 15/08 Q1019 R23/0/0060 NOSIG RMK QFE752/1003

Hora: 19:29 (13:29 UTC)

Previsão

O boletim foi feito há 2 horas e 30 minutos, às 10:59 UTC
Previsão válida de 24 às 12 UTC a 24 às 21 UTC
Vento 10 kt de oeste
Visibilidade 10 km ou mais
Nuvens dispersasa uma altura de 3000 ft

TAF: UACP 241059Z 2412/2421 26005MPS 9999 SCT030

Observações e previsões do tempo de mais de 4000 aeroportos (mensagens METAR e TAF).

As estações disponíveis são os pontos amarelos e vermelhos sobre o mapa.

Mova o rato sobre o mapa para ver o nome da estação.

Depois clique no ponto para visualizar as observações e previsões meteorológicas.

Para alterar o mapa : clique nos botões verdes com uma cruz preta para aumentar o zoom; no botão verde com uma pitada de zoom; ou nas setas verdes para mapas adjacentes.


METAR-TAF: